createdAt,value
2023-04-03T00:01:20.784Z,99.90
2023-04-03T00:04:24.305Z,99.90
2023-04-03T00:07:27.470Z,99.90
2023-04-03T00:10:32.094Z,99.90
2023-04-03T00:13:36.264Z,99.90
2023-04-03T00:16:39.464Z,99.90
2023-04-03T00:19:42.644Z,99.90
2023-04-03T00:22:45.912Z,99.90
2023-04-03T00:25:50.648Z,99.90
2023-04-03T00:28:54.000Z,99.90
2023-04-03T00:31:57.153Z,99.90
2023-04-03T00:35:00.438Z,99.90
2023-04-03T00:38:03.640Z,99.90
2023-04-03T00:41:08.715Z,99.90
2023-04-03T00:44:23.246Z,99.90
2023-04-03T00:47:27.317Z,99.90
2023-04-03T00:50:31.854Z,99.90
2023-04-03T00:53:40.733Z,99.90
2023-04-03T00:56:46.811Z,99.90
2023-04-03T00:59:54.015Z,99.90
2023-04-03T01:02:57.370Z,99.90
2023-04-03T01:06:01.079Z,99.90
2023-04-03T01:09:05.901Z,99.90
2023-04-03T01:12:18.537Z,99.90
2023-04-03T01:15:26.167Z,99.90
2023-04-03T01:18:29.636Z,99.90
2023-04-03T01:21:58.538Z,99.90
2023-04-03T01:25:01.949Z,99.90
2023-04-03T01:28:07.008Z,99.90
2023-04-03T01:31:17.759Z,99.90
2023-04-03T01:34:24.987Z,99.90
2023-04-03T01:37:28.935Z,99.90
2023-04-03T01:40:33.100Z,99.90
2023-04-03T01:43:37.368Z,99.90
2023-04-03T01:46:43.920Z,99.90
2023-04-03T01:49:54.721Z,99.90
2023-04-03T01:53:01.130Z,99.90
2023-04-03T01:56:27.175Z,99.90
2023-04-03T02:03:29.107Z,99.90
2023-04-03T02:06:33.899Z,99.90
2023-04-03T02:09:37.322Z,99.90
2023-04-03T02:12:40.753Z,99.90
2023-04-03T02:15:44.449Z,99.90
2023-04-03T02:18:47.698Z,99.90
2023-04-03T02:21:52.344Z,99.90
2023-04-03T02:24:55.637Z,99.90
2023-04-03T02:27:58.834Z,99.90
2023-04-03T02:31:02.090Z,99.90
2023-04-03T02:34:06.529Z,99.90
2023-04-03T02:37:12.795Z,99.90
2023-04-03T02:40:16.153Z,99.90
2023-04-03T02:43:20.267Z,99.90
2023-04-03T02:46:23.611Z,99.90
2023-04-03T02:49:27.004Z,99.90
2023-04-03T02:52:32.752Z,99.90
2023-04-03T02:55:36.538Z,99.90
2023-04-03T02:58:39.819Z,99.90
2023-04-03T03:01:46.302Z,99.90
2023-04-03T03:04:49.525Z,99.90
2023-04-03T03:07:54.065Z,99.90
2023-04-03T03:10:57.219Z,99.90
2023-04-03T03:14:00.452Z,99.90
2023-04-03T03:17:03.713Z,99.90
2023-04-03T03:20:08.174Z,99.90
2023-04-03T03:23:12.831Z,99.90
2023-04-03T03:26:16.412Z,99.90
2023-04-03T03:29:19.580Z,99.90
2023-04-03T03:32:23.081Z,99.90
2023-04-03T03:35:26.645Z,99.90
2023-04-03T03:38:31.790Z,99.90
2023-04-03T03:41:36.555Z,99.90
2023-04-03T03:44:40.758Z,99.90
2023-04-03T03:47:44.125Z,99.90
2023-04-03T03:50:47.469Z,99.90
2023-04-03T03:53:52.115Z,99.90
2023-04-03T03:56:56.944Z,99.90
2023-04-03T04:00:01.931Z,99.90
2023-04-03T04:03:06.992Z,99.90
2023-04-03T04:06:10.481Z,99.90
2023-04-03T04:09:15.627Z,99.90
2023-04-03T04:12:18.914Z,99.90
2023-04-03T04:15:22.745Z,99.90
2023-04-03T04:18:26.558Z,99.90
2023-04-03T04:21:30.205Z,99.90
2023-04-03T04:24:35.535Z,99.90
2023-04-03T04:27:40.809Z,99.90
2023-04-03T04:30:45.105Z,99.90
2023-04-03T04:33:49.645Z,99.90
2023-04-03T04:36:53.457Z,99.90
2023-04-03T04:39:58.616Z,99.90
2023-04-03T04:43:02.049Z,99.90
2023-04-03T04:46:07.115Z,99.90
2023-04-03T04:49:14.868Z,99.90
2023-04-03T04:52:18.242Z,99.90
2023-04-03T04:55:26.321Z,99.90
2023-04-03T04:58:29.773Z,99.90
2023-04-03T05:01:33.996Z,99.90
2023-04-03T05:04:43.898Z,99.90
2023-04-03T05:07:53.816Z,99.90
2023-04-03T05:10:58.738Z,99.90
2023-04-03T05:14:06.253Z,99.90
2023-04-03T05:17:10.753Z,99.90
2023-04-03T05:20:21.958Z,99.90
2023-04-03T05:23:26.184Z,99.90
2023-04-03T05:26:32.033Z,99.90
2023-04-03T05:29:36.545Z,99.90
2023-04-03T05:32:41.952Z,99.90
2023-04-03T05:36:08.994Z,99.90
2023-04-03T05:39:18.292Z,99.90
2023-04-03T05:42:25.368Z,99.90
2023-04-03T05:45:28.868Z,99.90
2023-04-03T05:48:33.545Z,99.90
2023-04-03T05:51:39.084Z,99.90
2023-04-03T05:54:56.744Z,99.90
2023-04-03T05:58:04.792Z,99.90
2023-04-03T06:01:08.785Z,99.90
2023-04-03T06:04:13.319Z,99.90
2023-04-03T06:07:18.705Z,99.90
2023-04-03T06:10:22.150Z,99.90
2023-04-03T06:13:26.910Z,99.90
2023-04-03T06:16:30.405Z,99.90
2023-04-03T06:19:33.982Z,99.90
2023-04-03T06:22:38.833Z,99.90
2023-04-03T06:26:25.983Z,99.90
2023-04-03T06:31:22.051Z,99.90
2023-04-03T06:39:39.525Z,99.90
2023-04-03T06:42:42.888Z,99.90
2023-04-03T06:45:49.512Z,99.90
2023-04-03T06:48:53.238Z,99.90
2023-04-03T06:51:56.604Z,99.90
2023-04-03T06:55:01.562Z,99.90
2023-04-03T06:58:05.572Z,99.90
2023-04-03T07:01:08.965Z,99.90
2023-04-03T07:04:12.295Z,99.90
2023-04-03T07:07:15.729Z,99.90
2023-04-03T07:10:21.016Z,99.90
2023-04-03T07:13:24.352Z,99.90
2023-04-03T07:16:27.902Z,99.90
2023-04-03T07:19:32.253Z,99.90
2023-04-03T07:22:35.631Z,99.90
2023-04-03T07:25:45.045Z,99.90
2023-04-03T07:28:49.554Z,99.90
2023-04-03T07:31:53.560Z,99.90
2023-04-03T07:34:57.836Z,99.90
2023-04-03T07:38:01.238Z,99.90
2023-04-03T07:41:06.846Z,99.90
2023-04-03T07:44:10.866Z,99.90
2023-04-03T07:47:15.463Z,99.90
2023-04-03T07:50:18.965Z,99.90
2023-04-03T07:53:22.360Z,99.90
2023-04-03T07:56:27.173Z,99.90
2023-04-03T07:59:30.628Z,99.90
2023-04-03T08:02:33.929Z,99.90
2023-04-03T08:05:39.886Z,99.90
2023-04-03T08:08:43.340Z,99.90
2023-04-03T08:11:48.074Z,99.90
2023-04-03T08:14:51.271Z,99.90
2023-04-03T08:17:54.617Z,99.80
2023-04-03T08:20:57.933Z,99.90
2023-04-03T08:24:01.156Z,99.90
2023-04-03T08:27:05.960Z,99.90
2023-04-03T08:30:10.977Z,99.80
2023-04-03T08:33:14.325Z,91.10
2023-04-03T08:36:21.847Z,97.10
2023-04-03T08:39:25.623Z,82.10
2023-04-03T08:42:44.135Z,92.10
2023-04-03T08:45:52.451Z,84.00
2023-04-03T08:48:57.105Z,72.20
2023-04-03T08:52:04.609Z,61.20
2023-04-03T08:55:15.851Z,50.50
2023-04-03T08:58:23.636Z,59.70
2023-04-03T09:01:32.159Z,40.80
2023-04-03T09:04:35.996Z,62.20
2023-04-03T09:07:45.029Z,71.10
2023-04-03T09:10:48.508Z,69.10
2023-04-03T09:13:59.675Z,60.10
2023-04-03T09:17:09.597Z,41.60
2023-04-03T09:20:22.079Z,47.40
2023-04-03T09:23:30.358Z,34.20
2023-04-03T09:26:38.154Z,39.80
2023-04-03T09:29:46.999Z,19.50
2023-04-03T09:32:53.065Z,1.00
2023-04-03T09:35:56.950Z,1.00
2023-04-03T09:39:07.006Z,16.50
2023-04-03T09:42:22.412Z,2.60
2023-04-03T09:45:29.651Z,4.50
2023-04-03T09:48:33.131Z,1.00
2023-04-03T09:51:36.696Z,1.00
2023-04-03T09:54:41.824Z,1.00
2023-04-03T09:57:45.718Z,1.00
2023-04-03T10:00:57.239Z,1.00
2023-04-03T10:04:12.883Z,1.00
2023-04-03T10:07:31.784Z,1.00
2023-04-03T10:10:35.178Z,1.00
2023-04-03T10:13:48.690Z,1.00
2023-04-03T10:17:01.828Z,1.00
2023-04-03T10:20:14.445Z,1.00
2023-04-03T10:23:23.219Z,1.00
2023-04-03T10:26:37.615Z,1.00
2023-04-03T10:29:49.516Z,1.00
2023-04-03T10:33:07.323Z,1.00
2023-04-03T10:36:21.303Z,1.00
2023-04-03T10:39:34.276Z,1.00
2023-04-03T10:42:45.799Z,1.00
2023-04-03T10:45:55.963Z,1.00
2023-04-03T10:49:16.981Z,1.00
2023-04-03T10:52:24.283Z,1.00
2023-04-03T10:55:37.869Z,1.00
2023-04-03T10:58:45.155Z,1.00
2023-04-03T11:01:53.731Z,1.00
2023-04-03T11:05:03.718Z,1.00
2023-04-03T11:08:14.527Z,1.00
2023-04-03T11:11:22.342Z,1.00
2023-04-03T11:14:30.178Z,1.00
2023-04-03T11:17:39.448Z,1.00
2023-04-03T11:20:48.661Z,1.00
2023-04-03T11:23:53.390Z,1.00
2023-04-03T11:27:00.570Z,1.00
2023-04-03T11:30:08.685Z,1.00
2023-04-03T11:33:33.986Z,1.00
2023-04-03T11:36:44.942Z,1.00
2023-04-03T11:39:56.383Z,99.90
2023-04-03T11:43:08.689Z,99.90
2023-04-03T11:46:12.785Z,1.00
2023-04-03T11:49:49.458Z,99.90
2023-04-03T11:53:04.679Z,99.90
2023-04-03T11:56:33.016Z,99.90
2023-04-03T11:59:39.741Z,99.90
2023-04-03T12:02:53.793Z,99.90
2023-04-03T12:05:59.967Z,99.90
2023-04-03T12:09:23.742Z,99.90
2023-04-03T12:12:32.725Z,99.90
2023-04-03T12:15:54.817Z,99.90
2023-04-03T12:19:01.210Z,99.90
2023-04-03T12:22:11.163Z,99.90
2023-04-03T12:25:51.874Z,99.90
2023-04-03T12:28:58.142Z,99.90
2023-04-03T12:32:12.562Z,99.90
2023-04-03T12:35:23.614Z,99.90
2023-04-03T12:38:56.992Z,99.90
2023-04-03T12:42:12.709Z,99.90
2023-04-03T12:45:22.860Z,99.90
2023-04-03T12:48:29.049Z,99.90
2023-04-03T12:51:39.556Z,99.90
2023-04-03T12:54:42.929Z,99.90
2023-04-03T12:57:47.763Z,99.90
2023-04-03T13:01:02.202Z,99.90
2023-04-03T13:04:06.470Z,99.90
2023-04-03T13:07:22.383Z,99.90
2023-04-03T13:10:25.943Z,99.90
2023-04-03T13:13:31.388Z,99.90
2023-04-03T13:16:35.579Z,99.90
2023-04-03T13:19:38.918Z,99.90
2023-04-03T13:22:53.349Z,99.90
2023-04-03T13:25:59.380Z,99.90
2023-04-03T13:29:06.771Z,99.90
2023-04-03T13:32:22.214Z,99.90
2023-04-03T13:35:43.924Z,99.90
2023-04-03T13:38:47.233Z,99.90
2023-04-03T13:41:52.162Z,99.90
2023-04-03T13:45:29.306Z,99.90
2023-04-03T13:48:40.550Z,99.90
2023-04-03T13:51:46.347Z,99.90
2023-04-03T13:54:56.231Z,99.90
2023-04-03T13:58:02.122Z,99.90
2023-04-03T14:01:13.308Z,99.90
2023-04-03T14:04:21.694Z,99.90
2023-04-03T14:07:25.210Z,99.90
2023-04-03T14:10:28.562Z,99.90
2023-04-03T14:13:33.318Z,99.90
2023-04-03T14:16:41.892Z,99.90
2023-04-03T14:19:47.621Z,99.90
2023-04-03T14:22:52.212Z,99.90
2023-04-03T14:29:17.037Z,99.90
2023-04-03T14:32:25.407Z,99.90
2023-04-03T14:35:30.729Z,99.90
2023-04-03T14:38:34.109Z,99.90
2023-04-03T14:41:37.589Z,99.90
2023-04-03T14:44:41.694Z,99.90
2023-04-03T14:47:48.918Z,99.90
2023-04-03T14:51:04.649Z,99.90
2023-04-03T14:54:15.758Z,99.90
2023-04-03T14:57:19.675Z,99.90
2023-04-03T15:00:24.847Z,99.90
2023-04-03T15:03:28.409Z,99.90
2023-04-03T15:06:33.951Z,99.90
2023-04-03T15:09:39.160Z,99.90
2023-04-03T15:12:42.860Z,99.90
2023-04-03T15:15:46.407Z,99.90
2023-04-03T15:18:49.973Z,99.90
2023-04-03T15:21:54.725Z,99.90
2023-04-03T15:24:58.211Z,99.90
2023-04-03T15:28:02.708Z,99.90
2023-04-03T15:31:06.779Z,99.90
2023-04-03T15:34:10.168Z,99.90
2023-04-03T15:37:14.967Z,99.90
2023-04-03T15:40:18.438Z,99.90
2023-04-03T15:43:21.859Z,99.90
2023-04-03T15:46:25.232Z,99.90
2023-04-03T15:49:29.064Z,99.90
2023-04-03T15:52:33.978Z,99.90
2023-04-03T15:55:39.848Z,99.90
2023-04-03T15:58:43.356Z,99.90
2023-04-03T16:01:47.328Z,99.90
2023-04-03T16:04:51.093Z,99.90
2023-04-03T16:07:56.305Z,99.90
2023-04-03T16:10:59.704Z,99.90
2023-04-03T16:14:03.182Z,1.00
2023-04-03T16:17:06.496Z,1.00
2023-04-03T16:20:12.139Z,1.00
2023-04-03T16:26:21.101Z,1.00
2023-04-03T16:29:24.345Z,1.00
2023-04-03T16:32:30.955Z,1.00
2023-04-03T16:35:34.420Z,1.00
2023-04-03T16:38:39.486Z,1.00
2023-04-03T16:41:42.791Z,1.00
2023-04-03T16:44:46.386Z,1.00
2023-04-03T16:47:49.759Z,1.00
2023-04-03T16:50:54.283Z,1.00
2023-04-03T16:53:59.760Z,1.00
2023-04-03T16:57:03.206Z,1.00
2023-04-03T17:00:08.383Z,1.00
2023-04-03T17:03:12.043Z,1.00
2023-04-03T17:06:19.270Z,1.00
2023-04-03T17:12:44.660Z,1.00
2023-04-03T17:15:48.063Z,1.00
2023-04-03T17:18:54.372Z,1.00
2023-04-03T17:21:58.149Z,1.00
2023-04-03T17:25:02.924Z,1.00
2023-04-03T17:28:06.624Z,1.00
2023-04-03T17:31:09.980Z,1.00
2023-04-03T17:34:13.477Z,1.00
2023-04-03T17:37:18.321Z,1.00
2023-04-03T17:40:23.338Z,1.00
2023-04-03T17:43:26.879Z,1.00
2023-04-03T17:46:34.759Z,1.00
2023-04-03T17:49:39.416Z,1.00
2023-04-03T17:52:42.741Z,1.00
2023-04-03T17:55:47.438Z,1.00
2023-04-03T17:58:52.047Z,1.00
2023-04-03T18:01:56.899Z,1.00
2023-04-03T18:05:00.441Z,1.00
2023-04-03T18:08:04.173Z,1.00
2023-04-03T18:11:09.521Z,1.00
2023-04-03T18:14:16.634Z,1.00
2023-04-03T18:17:20.293Z,1.00
2023-04-03T18:20:23.939Z,1.00
2023-04-03T18:23:27.883Z,1.00
2023-04-03T18:26:32.670Z,1.00
2023-04-03T18:29:39.073Z,1.00
2023-04-03T18:32:43.035Z,1.00
2023-04-03T18:35:46.375Z,1.00
2023-04-03T18:38:49.767Z,1.00
2023-04-03T18:41:54.635Z,1.00
2023-04-03T18:45:00.568Z,1.00
2023-04-03T18:48:05.172Z,1.00
2023-04-03T18:51:11.063Z,1.00
2023-04-03T18:54:21.029Z,1.00
2023-04-03T18:57:30.732Z,1.00
2023-04-03T19:00:35.638Z,1.00
2023-04-03T19:03:39.748Z,1.00
2023-04-03T19:06:44.702Z,1.00
2023-04-03T19:09:48.149Z,1.00
2023-04-03T19:12:53.130Z,1.00
2023-04-03T19:15:58.971Z,1.00
2023-04-03T19:19:03.068Z,1.00
2023-04-03T19:22:07.751Z,1.00
2023-04-03T19:25:13.016Z,1.00
2023-04-03T19:28:17.841Z,1.00
2023-04-03T19:31:23.204Z,1.00
2023-04-03T19:34:26.553Z,1.00
2023-04-03T19:37:30.261Z,1.00
2023-04-03T19:40:35.487Z,1.00
2023-04-03T19:43:41.478Z,1.00
2023-04-03T19:46:51.342Z,1.00
2023-04-03T19:49:55.104Z,1.00
2023-04-03T19:52:58.604Z,1.00
2023-04-03T19:56:02.190Z,1.00
2023-04-03T19:59:07.105Z,1.00
2023-04-03T20:02:10.723Z,1.00
2023-04-03T20:05:14.001Z,1.00
2023-04-03T20:08:17.492Z,1.00
2023-04-03T20:11:21.273Z,1.00
2023-04-03T20:14:26.122Z,1.00
2023-04-03T20:17:29.649Z,1.00
2023-04-03T20:20:33.021Z,1.00
2023-04-03T20:23:37.377Z,1.00
2023-04-03T20:26:46.220Z,1.00
2023-04-03T20:29:51.364Z,1.00
2023-04-03T20:32:56.290Z,1.00
2023-04-03T20:36:01.594Z,1.00
2023-04-03T20:39:05.542Z,1.00
2023-04-03T20:42:11.910Z,1.00
2023-04-03T20:45:16.651Z,1.00
2023-04-03T20:48:20.093Z,1.00
2023-04-03T20:51:23.487Z,1.00
2023-04-03T20:54:26.888Z,1.00
2023-04-03T20:57:30.343Z,1.00
2023-04-03T21:00:37.527Z,1.00
2023-04-03T21:03:40.923Z,1.00
2023-04-03T21:07:21.582Z,1.00
2023-04-03T21:11:02.205Z,1.00
2023-04-03T21:14:43.598Z,1.00
2023-04-03T21:18:07.778Z,1.00
2023-04-03T21:21:22.312Z,2.20
2023-04-03T21:24:25.670Z,7.90
2023-04-03T21:27:29.821Z,1.00
2023-04-03T21:30:33.364Z,1.00
2023-04-03T21:33:38.303Z,3.10
2023-04-03T21:36:41.826Z,7.30
2023-04-03T21:39:45.559Z,3.30
2023-04-03T21:42:48.789Z,6.10
2023-04-03T21:45:55.754Z,2.10
2023-04-03T21:49:01.374Z,7.00
2023-04-03T21:52:04.728Z,6.60
2023-04-03T21:55:09.342Z,1.00
2023-04-03T21:58:12.554Z,1.00
2023-04-03T22:01:17.059Z,3.30
2023-04-03T22:04:22.399Z,4.90
2023-04-03T22:07:25.993Z,6.30
2023-04-03T22:10:29.484Z,12.80
2023-04-03T22:13:33.109Z,18.50
2023-04-03T22:16:36.397Z,14.20
2023-04-03T22:19:41.123Z,19.30
2023-04-03T22:22:44.783Z,19.40
2023-04-03T22:25:59.851Z,25.70
2023-04-03T22:29:04.016Z,23.20
2023-04-03T22:32:07.604Z,29.80
2023-04-03T22:35:12.514Z,30.60
2023-04-03T22:38:15.934Z,34.50
2023-04-03T22:41:19.085Z,37.00
2023-04-03T22:44:23.069Z,35.30
2023-04-03T22:47:27.955Z,40.90
2023-04-03T22:50:35.251Z,42.00
2023-04-03T22:53:38.901Z,45.50
2023-04-03T22:56:42.410Z,52.30
2023-04-03T22:59:45.725Z,57.60
2023-04-03T23:02:49.947Z,70.70
2023-04-03T23:05:56.193Z,82.00
2023-04-03T23:08:59.374Z,86.20
2023-04-03T23:12:02.660Z,89.90
2023-04-03T23:15:06.822Z,95.10
2023-04-03T23:18:10.013Z,99.90
2023-04-03T23:21:14.801Z,99.90
2023-04-03T23:24:17.967Z,99.90
2023-04-03T23:27:21.180Z,99.90
2023-04-03T23:30:24.393Z,99.90
2023-04-03T23:33:27.821Z,99.90
2023-04-03T23:40:48.865Z,99.90
2023-04-03T23:43:52.243Z,99.90
2023-04-03T23:46:57.188Z,99.90
2023-04-03T23:50:00.855Z,99.90
2023-04-03T23:53:05.541Z,99.90
2023-04-03T23:56:12.380Z,99.90
2023-04-03T23:59:15.949Z,99.90
